Time;durP1;ratioP1;P1;durP2;ratioP2;P2;SDS_P1;SDS_P2;PMS_P1;PMS_P2;Temp;Humidity;BMP_temperature;BMP_pressure;BME280_temperature;BME280_humidity;BME280_pressure;Samples;Min_cycle;Max_cycle;Signal;HPM_P1;HPM_P2
2022/05/10 00:01:52;;;;;;;5.70;5.30;;;13.50;39.70;;;;;;6306857;28;20232;-53
2022/05/10 00:04:55;;;;;;;6.17;5.67;;;13.50;40.30;;;;;;6313430;28;20229;-53
2022/05/10 00:08:00;;;;;;;5.67;5.27;;;13.50;39.90;;;;;;6316646;28;20240;-53
2022/05/10 00:11:09;;;;;;;5.80;5.40;;;13.40;40.40;;;;;;6284721;28;20412;-55
2022/05/10 00:14:11;;;;;;;5.70;5.20;;;13.40;40.60;;;;;;6277846;28;20320;-52
2022/05/10 00:17:23;;;;;;;6.80;5.43;;;13.30;41.90;;;;;;6277992;28;20699;-52
2022/05/10 00:20:27;;;;;;;5.47;5.13;;;13.30;42.20;;;;;;6304787;28;20686;-53
2022/05/10 00:23:31;;;;;;;7.03;5.07;;;13.30;42.90;;;;;;6276878;28;20319;-51
2022/05/10 00:26:35;;;;;;;6.63;5.80;;;13.30;43.90;;;;;;6319751;28;20675;-53
2022/05/10 00:29:39;;;;;;;5.30;5.00;;;13.20;44.20;;;;;;6309967;28;20280;-53
2022/05/10 00:32:43;;;;;;;6.90;5.67;;;13.20;45.90;;;;;;6307317;28;20235;-53
2022/05/10 00:35:46;;;;;;;6.77;5.90;;;13.10;47.10;;;;;;6319222;28;20456;-52
2022/05/10 00:38:54;;;;;;;5.83;5.43;;;13.10;48.30;;;;;;6317514;28;20285;-53
2022/05/10 00:42:01;;;;;;;5.80;5.30;;;13.10;48.40;;;;;;6325444;28;20321;-53
2022/05/10 00:45:09;;;;;;;6.40;5.90;;;13.00;48.50;;;;;;6327406;28;20427;-52
2022/05/10 00:48:17;;;;;;;6.20;5.77;;;13.00;49.70;;;;;;6310533;28;20240;-53
2022/05/10 00:51:27;;;;;;;6.23;5.77;;;13.10;51.30;;;;;;6293931;28;20241;-51
2022/05/10 00:54:37;;;;;;;5.73;5.23;;;13.00;51.40;;;;;;6306868;28;20232;-52
2022/05/10 00:57:45;;;;;;;6.37;5.77;;;12.90;52.50;;;;;;6308067;28;20567;-52
2022/05/10 01:00:48;;;;;;;7.10;5.80;;;12.90;53.20;;;;;;6301290;28;20374;-53
2022/05/10 01:03:55;;;;;;;6.03;5.37;;;12.90;53.60;;;;;;6310423;28;20302;-54
2022/05/10 01:07:04;;;;;;;6.27;5.67;;;12.90;53.70;;;;;;6286231;28;20402;-53
2022/05/10 01:10:15;;;;;;;6.30;5.90;;;12.80;54.80;;;;;;6299793;28;20320;-54
2022/05/10 01:13:25;;;;;;;6.60;6.00;;;12.80;55.10;;;;;;6295284;28;20252;-52
2022/05/10 01:16:28;;;;;;;5.87;5.40;;;12.80;56.20;;;;;;6275022;28;20391;-53
2022/05/10 01:19:32;;;;;;;8.87;5.80;;;12.70;57.30;;;;;;6277444;28;20244;-53
2022/05/10 01:22:55;;;;;;;5.60;5.30;;;12.70;56.90;;;;;;6278228;28;20291;-53
2022/05/10 01:26:05;;;;;;;6.10;5.50;;;12.70;58.40;;;;;;6299491;28;20236;-52
2022/05/10 01:29:18;;;;;;;6.00;5.60;;;12.70;59.90;;;;;;6305401;28;20228;-54
2022/05/10 01:35:53;;;;;;;5.67;5.27;;;12.60;60.00;;;;;;6309761;28;20277;-53
2022/05/10 01:39:01;;;;;;;6.27;5.67;;;12.60;62.20;;;;;;6301857;28;20315;-53
2022/05/10 01:42:09;;;;;;;7.97;5.93;;;12.50;62.50;;;;;;6275642;28;20305;-53
2022/05/10 01:45:23;;;;;;;9.10;6.23;;;12.50;66.30;;;;;;6277349;28;20269;-53
2022/05/10 01:48:26;;;;;;;6.17;5.60;;;12.50;65.00;;;;;;6278086;28;20260;-53
2022/05/10 01:51:34;;;;;;;6.13;5.63;;;12.40;65.30;;;;;;6295745;28;20270;-53
2022/05/10 01:55:03;;;;;;;6.37;5.73;;;12.40;67.70;;;;;;6300732;28;20339;-52
2022/05/10 01:58:10;;;;;;;6.53;5.93;;;12.30;67.00;;;;;;6305382;28;20240;-51
2022/05/10 02:01:22;;;;;;;5.90;5.57;;;12.30;67.10;;;;;;6276659;28;20571;-53
2022/05/10 02:04:30;;;;;;;5.77;5.30;;;12.40;66.60;;;;;;6296859;28;20247;-52
2022/05/10 02:07:35;;;;;;;6.03;5.53;;;12.30;66.60;;;;;;6298086;28;20759;-53
2022/05/10 02:10:41;;;;;;;5.93;5.63;;;12.30;66.80;;;;;;6307599;28;20239;-52
2022/05/10 02:13:53;;;;;;;6.87;6.17;;;12.30;67.90;;;;;;6306285;28;20439;-52
2022/05/10 02:17:02;;;;;;;6.17;5.73;;;12.20;67.70;;;;;;6305922;28;20252;-53
2022/05/10 02:20:12;;;;;;;6.00;5.57;;;12.20;67.00;;;;;;6306153;28;20240;-54
2022/05/10 02:23:19;;;;;;;5.83;5.53;;;12.20;67.90;;;;;;6306933;28;20256;-52
2022/05/10 02:26:29;;;;;;;6.20;5.80;;;12.10;67.40;;;;;;6290268;28;21516;-53
2022/05/10 02:29:38;;;;;;;6.60;6.10;;;12.10;69.70;;;;;;6303852;28;20704;-53
2022/05/10 02:36:09;;;;;;;7.20;6.67;;;12.00;73.40;;;;;;6310138;28;20236;-53
2022/05/10 02:39:11;;;;;;;9.10;6.33;;;12.00;74.60;;;;;;6296205;28;20331;-53
2022/05/10 02:42:17;;;;;;;8.47;5.83;;;12.00;74.60;;;;;;6302060;28;20311;-53
2022/05/10 02:45:20;;;;;;;6.53;5.93;;;12.00;74.60;;;;;;6306142;28;20229;-52
2022/05/10 02:48:28;;;;;;;7.17;6.53;;;12.00;74.60;;;;;;6304194;28;20419;-52
2022/05/10 02:51:30;;;;;;;6.97;6.40;;;11.90;74.50;;;;;;6304278;28;20228;-53
2022/05/10 02:54:33;;;;;;;6.23;5.83;;;11.90;74.50;;;;;;6320423;28;20914;-53
2022/05/10 02:57:40;;;;;;;6.90;6.27;;;11.90;74.50;;;;;;6324389;28;20236;-52
2022/05/10 03:00:43;;;;;;;6.93;6.43;;;11.90;74.50;;;;;;6304073;28;20245;-52
2022/05/10 03:03:50;;;;;;;9.30;6.40;;;11.90;74.60;;;;;;6316268;28;20283;-53
2022/05/10 03:06:53;;;;;;;6.73;6.27;;;11.90;74.60;;;;;;6289482;28;20372;-50
2022/05/10 03:09:56;;;;;;;7.43;6.83;;;11.80;74.40;;;;;;6310619;28;20735;-53
2022/05/10 03:12:59;;;;;;;6.43;5.93;;;11.80;74.40;;;;;;6310211;28;20384;-50
2022/05/10 03:16:06;;;;;;;6.27;5.97;;;11.80;74.40;;;;;;6305114;28;20263;-53
2022/05/10 03:19:11;;;;;;;6.83;6.10;;;11.80;74.50;;;;;;6291288;28;20602;-53
2022/05/10 03:22:13;;;;;;;6.83;6.23;;;11.80;74.40;;;;;;6278894;28;20320;-53
2022/05/10 03:25:16;;;;;;;7.73;7.13;;;11.80;74.50;;;;;;6296345;28;20232;-53
2022/05/10 03:28:19;;;;;;;7.57;6.43;;;11.80;74.40;;;;;;6328777;28;20243;-53
2022/05/10 03:31:26;;;;;;;6.33;5.87;;;11.70;75.40;;;;;;6317971;28;20704;-54
2022/05/10 03:37:54;;;;;;;7.87;7.07;;;11.70;74.30;;;;;;6301180;28;20233;-54
2022/05/10 03:40:57;;;;;;;7.33;6.30;;;11.70;74.30;;;;;;6303839;28;20235;-53
2022/05/10 03:43:59;;;;;;;6.87;6.27;;;11.70;74.30;;;;;;6317957;27;20266;-53
2022/05/10 03:47:03;;;;;;;7.37;6.80;;;11.70;74.40;;;;;;6329462;28;20733;-53
2022/05/10 03:50:09;;;;;;;7.17;6.67;;;11.70;74.30;;;;;;6322615;28;20365;-54
2022/05/10 03:53:12;;;;;;;7.13;6.43;;;11.60;74.20;;;;;;6328632;27;20247;-53
2022/05/10 03:56:15;;;;;;;6.70;6.20;;;11.70;74.30;;;;;;6325596;27;20396;-54
2022/05/10 03:59:18;;;;;;;7.57;7.07;;;11.60;74.30;;;;;;6325861;28;20244;-53
2022/05/10 04:02:21;;;;;;;7.83;6.93;;;11.70;74.40;;;;;;6329194;27;20500;-53
2022/05/10 04:05:27;;;;;;;7.93;6.60;;;11.70;74.40;;;;;;6328890;27;20418;-53
2022/05/10 04:08:30;;;;;;;7.67;6.97;;;11.60;74.20;;;;;;6316847;27;20243;-51
2022/05/10 04:11:34;;;;;;;7.50;6.80;;;11.70;74.40;;;;;;6298255;28;21192;-53
2022/05/10 04:14:37;;;;;;;7.77;7.03;;;11.70;74.30;;;;;;6305439;28;20248;-52
2022/05/10 04:17:39;;;;;;;7.10;6.57;;;11.70;74.30;;;;;;6303770;28;20267;-53
2022/05/10 04:20:44;;;;;;;7.67;7.00;;;11.70;73.50;;;;;;6324475;28;20614;-52
2022/05/10 04:23:46;;;;;;;7.20;6.70;;;11.70;74.30;;;;;;6308454;28;20224;-50
2022/05/10 04:26:50;;;;;;;7.53;6.80;;;11.70;74.30;;;;;;6294489;28;20709;-52
2022/05/10 04:29:52;;;;;;;7.43;6.70;;;11.70;74.30;;;;;;6301311;28;20236;-52
2022/05/10 04:32:56;;;;;;;8.63;6.93;;;11.80;73.10;;;;;;6311008;28;20302;-53
2022/05/10 04:36:00;;;;;;;8.03;7.20;;;11.80;74.50;;;;;;6326261;27;20320;-52
2022/05/10 04:39:03;;;;;;;7.60;6.90;;;11.90;72.60;;;;;;6327467;27;20266;-54
2022/05/10 04:42:05;;;;;;;9.67;6.60;;;11.90;72.00;;;;;;6323041;28;20232;-53
2022/05/10 04:45:10;;;;;;;8.00;7.23;;;11.80;71.10;;;;;;6320219;27;20244;-52
2022/05/10 04:48:13;;;;;;;7.80;7.10;;;11.90;72.80;;;;;;6323801;27;20791;-53
2022/05/10 04:51:17;;;;;;;7.07;6.43;;;12.10;71.20;;;;;;6311349;27;20331;-52
2022/05/10 04:54:19;;;;;;;8.10;7.13;;;12.10;69.70;;;;;;6324677;28;20780;-52
2022/05/10 04:57:22;;;;;;;7.63;7.00;;;12.30;70.60;;;;;;6321463;28;20291;-53
2022/05/10 05:00:26;;;;;;;7.57;7.00;;;12.40;66.70;;;;;;6306966;28;20232;-52
2022/05/10 05:03:28;;;;;;;8.20;7.13;;;12.50;66.20;;;;;;6301585;28;20387;-53
2022/05/10 05:06:33;;;;;;;7.93;7.20;;;12.70;65.30;;;;;;6302709;28;20463;-53
2022/05/10 05:09:36;;;;;;;12.27;6.90;;;12.80;61.70;;;;;;6304739;28;20271;-52
2022/05/10 05:12:39;;;;;;;10.13;7.40;;;12.90;60.50;;;;;;6321864;27;20562;-53
2022/05/10 05:15:42;;;;;;;8.33;7.50;;;13.10;61.90;;;;;;6325314;28;20354;-53
2022/05/10 05:18:46;;;;;;;7.77;7.17;;;13.30;60.00;;;;;;6323089;28;20236;-51
2022/05/10 05:21:50;;;;;;;7.60;6.90;;;13.60;53.70;;;;;;6323069;28;20235;-52
2022/05/10 05:24:52;;;;;;;8.57;7.57;;;13.80;51.40;;;;;;6316649;27;20451;-53
2022/05/10 05:27:56;;;;;;;8.83;7.23;;;14.00;48.50;;;;;;6296912;28;20240;-54
2022/05/10 05:31:00;;;;;;;8.37;6.90;;;14.30;46.70;;;;;;6302291;28;20316;-52
2022/05/10 05:34:03;;;;;;;8.57;6.80;;;14.50;45.40;;;;;;6311412;28;20969;-53
2022/05/10 05:40:29;;;;;;;7.67;7.03;;;15.00;41.20;;;;;;6298968;28;20413;-53
2022/05/10 05:43:41;;;;;;;11.97;7.33;;;15.30;40.60;;;;;;6295799;28;20322;-53
2022/05/10 05:46:44;;;;;;;7.87;7.10;;;15.60;36.70;;;;;;6290799;28;20366;-52
2022/05/10 05:49:47;;;;;;;8.37;7.50;;;15.80;32.20;;;;;;6305866;28;20720;-53
2022/05/10 05:52:52;;;;;;;6.93;6.33;;;16.10;30.60;;;;;;6304516;28;20323;-51
2022/05/10 05:56:00;;;;;;;9.83;7.47;;;16.30;31.50;;;;;;6321481;27;20700;-53
2022/05/10 05:59:03;;;;;;;13.97;6.87;;;16.40;27.10;;;;;;6308940;28;20530;-53
2022/05/10 06:02:12;;;;;;;13.07;7.07;;;16.60;26.80;;;;;;6322155;28;20838;-54
2022/05/10 06:05:15;;;;;;;9.97;7.10;;;16.90;23.50;;;;;;6319041;28;20717;-55
2022/05/10 06:08:22;;;;;;;11.23;7.07;;;17.00;23.40;;;;;;6306626;27;20331;-54
2022/05/10 06:11:24;;;;;;;10.63;7.50;;;17.10;23.10;;;;;;6304704;28;20375;-54
2022/05/10 06:14:27;;;;;;;10.67;7.53;;;17.30;18.40;;;;;;6315053;28;20266;-54
2022/05/10 06:17:30;;;;;;;11.67;7.20;;;17.60;22.70;;;;;;6322672;28;20679;-53
2022/05/10 06:20:33;;;;;;;12.17;6.17;;;17.90;18.80;;;;;;6310145;27;20399;-54
2022/05/10 06:23:37;;;;;;;8.87;6.03;;;18.20;19.00;;;;;;6322698;27;20643;-53
2022/05/10 06:26:40;;;;;;;7.80;6.53;;;18.30;19.10;;;;;;6303108;28;20293;-53
2022/05/10 06:29:43;;;;;;;12.23;7.13;;;18.60;19.30;;;;;;6306173;28;20228;-54
2022/05/10 06:32:47;;;;;;;9.87;6.83;;;18.70;19.50;;;;;;6318579;28;20229;-52
2022/05/10 06:35:50;;;;;;;12.80;6.27;;;18.80;19.50;;;;;;6307967;28;20334;-54
2022/05/10 06:38:54;;;;;;;7.13;6.50;;;18.90;19.50;;;;;;6326320;27;20589;-54
2022/05/10 06:41:57;;;;;;;9.27;6.10;;;19.10;19.70;;;;;;6328497;28;20255;-52
2022/05/10 06:45:00;;;;;;;12.80;7.23;;;19.20;19.80;;;;;;6332095;27;20228;-52
2022/05/10 06:48:07;;;;;;;11.60;6.73;;;19.30;19.60;;;;;;6329516;28;20270;-53
2022/05/10 06:51:11;;;;;;;9.03;6.57;;;19.50;20.00;;;;;;6329380;28;20327;-54
2022/05/10 06:54:18;;;;;;;7.70;6.43;;;19.80;16.00;;;;;;6323209;27;20600;-54
2022/05/10 06:57:20;;;;;;;13.27;6.60;;;20.00;14.30;;;;;;6290536;28;20271;-54
2022/05/10 07:00:24;;;;;;;11.03;7.50;;;20.00;12.70;;;;;;6311800;27;21249;-53
2022/05/10 07:03:32;;;;;;;13.13;7.53;;;20.10;11.40;;;;;;6308233;28;20514;-53
2022/05/10 07:06:35;;;;;;;11.13;7.00;;;19.90;9.10;;;;;;6304101;28;20251;-54
2022/05/10 07:09:39;;;;;;;12.67;6.87;;;19.90;11.20;;;;;;6301849;28;20237;-53
2022/05/10 07:12:43;;;;;;;13.93;7.03;;;19.90;12.20;;;;;;6301907;28;20319;-51
2022/05/10 07:15:46;;;;;;;9.63;6.60;;;19.70;13.40;;;;;;6300654;28;20615;-52
2022/05/10 07:18:48;;;;;;;10.90;6.40;;;19.70;16.50;;;;;;6308421;28;20240;-52
2022/05/10 07:21:52;;;;;;;9.47;6.23;;;19.70;16.60;;;;;;6304798;28;20313;-54
2022/05/10 07:24:56;;;;;;;10.20;6.73;;;19.80;16.00;;;;;;6304387;28;20619;-54
2022/05/10 07:28:00;;;;;;;6.93;6.23;;;20.00;20.40;;;;;;6298125;28;20335;-53
2022/05/10 07:31:02;;;;;;;9.00;6.23;;;20.10;12.40;;;;;;6305144;28;20679;-52
2022/05/10 07:34:05;;;;;;;11.67;7.00;;;20.20;11.50;;;;;;6305898;28;20316;-53
2022/05/10 07:37:08;;;;;;;11.00;6.00;;;20.40;10.80;;;;;;6305385;28;20298;-53
2022/05/10 07:40:13;;;;;;;15.13;6.07;;;20.30;11.40;;;;;;6303394;28;20611;-54
2022/05/10 07:43:17;;;;;;;8.10;6.23;;;20.40;11.00;;;;;;6302405;28;20253;-53
2022/05/10 07:46:20;;;;;;;11.60;6.63;;;20.30;11.70;;;;;;6301525;28;20779;-54
2022/05/10 07:49:23;;;;;;;7.73;6.60;;;20.50;16.60;;;;;;6307838;28;20605;-54
2022/05/10 07:52:25;;;;;;;11.50;6.00;;;20.60;12.90;;;;;;6301706;28;20365;-53
2022/05/10 07:55:29;;;;;;;12.47;5.80;;;20.80;10.90;;;;;;6298741;28;20609;-54
2022/05/10 07:58:33;;;;;;;8.97;6.07;;;20.90;9.50;;;;;;6302550;28;20235;-54
2022/05/10 08:01:36;;;;;;;9.27;5.80;;;21.00;8.80;;;;;;6302365;28;20229;-52
2022/05/10 08:04:39;;;;;;;10.83;5.93;;;21.10;5.70;;;;;;6297887;28;20471;-53
2022/05/10 08:07:43;;;;;;;9.43;5.53;;;21.20;6.80;;;;;;6323361;27;20508;-54
2022/05/10 08:10:49;;;;;;;9.87;5.33;;;21.20;5.60;;;;;;6323896;28;20338;-53
2022/05/10 08:13:54;;;;;;;8.07;5.63;;;21.40;6.40;;;;;;6298555;28;20366;-54
2022/05/10 08:16:57;;;;;;;11.43;6.47;;;21.50;5.00;;;;;;6289961;28;20358;-53
2022/05/10 08:20:00;;;;;;;6.77;5.17;;;21.50;4.00;;;;;;6303093;28;20241;-53
2022/05/10 08:23:03;;;;;;;7.03;5.30;;;21.60;5.30;;;;;;6316196;28;20233;-53
2022/05/10 08:26:08;;;;;;;8.40;4.93;;;21.50;1.80;;;;;;6299217;28;20392;-54
2022/05/10 08:29:14;;;;;;;13.07;5.47;;;21.60;2.20;;;;;;6302561;28;20273;-54
2022/05/10 08:32:17;;;;;;;13.40;5.13;;;21.70;1.10;;;;;;6304273;28;20327;-55
2022/05/10 08:35:20;;;;;;;9.30;5.10;;;21.80;4.20;;;;;;6302419;28;20306;-54
2022/05/10 08:38:30;;;;;;;8.90;5.13;;;21.80;1.00;;;;;;6308884;28;20377;-54
2022/05/10 08:41:44;;;;;;;8.33;4.77;;;22.00;1.00;;;;;;6295481;28;20335;-54
2022/05/10 08:44:54;;;;;;;5.10;4.70;;;22.20;1.00;;;;;;6318054;28;20268;-54
2022/05/10 08:47:57;;;;;;;12.00;5.10;;;22.30;1.00;;;;;;6324954;28;20269;-53
2022/05/10 08:51:02;;;;;;;9.97;4.60;;;22.40;1.00;;;;;;6321864;28;20231;-53
2022/05/10 08:54:07;;;;;;;7.93;4.63;;;22.30;1.00;;;;;;6327625;27;20254;-53
2022/05/10 08:57:20;;;;;;;6.87;4.70;;;22.40;1.00;;;;;;6298931;28;20248;-48
2022/05/10 09:00:31;;;;;;;5.63;4.03;;;22.50;1.00;;;;;;6295351;28;20802;-54
2022/05/10 09:03:44;;;;;;;8.77;4.60;;;22.50;1.00;;;;;;6306140;28;20233;-54
2022/05/10 09:06:55;;;;;;;7.53;3.83;;;22.30;1.00;;;;;;6302881;28;20289;-53
2022/05/10 09:10:04;;;;;;;9.03;4.50;;;22.50;1.00;;;;;;6302178;28;20279;-54
2022/05/10 09:13:11;;;;;;;4.67;3.80;;;22.70;1.00;;;;;;6314924;28;20236;-53
2022/05/10 09:16:16;;;;;;;5.30;3.63;;;22.70;1.00;;;;;;6328374;27;20247;-54
2022/05/10 09:19:19;;;;;;;6.43;4.80;;;22.70;1.00;;;;;;6314897;28;20502;-53
2022/05/10 09:22:33;;;;;;;6.00;4.03;;;22.70;1.00;;;;;;6314062;28;20235;-54
2022/05/10 09:25:38;;;;;;;4.27;3.83;;;22.80;1.00;;;;;;6321495;27;20308;-53
2022/05/10 09:28:47;;;;;;;4.10;3.90;;;22.90;1.00;;;;;;6312733;28;20244;-54
2022/05/10 09:35:14;;;;;;;4.20;3.80;;;22.90;1.00;;;;;;6321374;28;20408;-53
2022/05/10 09:38:18;;;;;;;4.40;4.00;;;23.10;1.00;;;;;;6325663;28;20239;-54
2022/05/10 09:41:30;;;;;;;5.50;3.80;;;23.10;1.00;;;;;;6322893;28;20232;-52
2022/05/10 09:44:35;;;;;;;9.13;3.93;;;23.40;1.00;;;;;;6327280;28;20730;-55
2022/05/10 09:47:39;;;;;;;4.33;3.93;;;23.30;1.00;;;;;;6325696;28;20304;-53
2022/05/10 09:50:44;;;;;;;4.50;4.20;;;23.40;1.00;;;;;;6317913;28;20725;-55
2022/05/10 09:53:47;;;;;;;3.57;3.47;;;23.40;1.00;;;;;;6326821;28;20289;-54
2022/05/10 09:56:55;;;;;;;8.77;4.23;;;23.60;1.00;;;;;;6322260;28;20231;-54
2022/05/10 10:00:02;;;;;;;5.03;3.50;;;23.70;1.00;;;;;;6325476;28;20232;-54
2022/05/10 10:03:06;;;;;;;8.60;3.93;;;23.90;1.00;;;;;;6327290;28;20240;-53
2022/05/10 10:06:16;;;;;;;5.43;4.20;;;23.90;1.00;;;;;;6325906;28;20240;-53
2022/05/10 10:09:32;;;;;;;6.80;4.33;;;23.80;1.00;;;;;;6323915;28;20304;-56
2022/05/10 10:12:37;;;;;;;7.27;4.67;;;24.00;1.00;;;;;;6322766;28;20331;-55
2022/05/10 10:15:44;;;;;;;9.57;4.27;;;24.10;1.00;;;;;;6326897;28;20243;-54
2022/05/10 10:18:51;;;;;;;6.83;4.30;;;24.20;1.00;;;;;;6323267;28;20258;-54
2022/05/10 10:21:57;;;;;;;9.50;4.30;;;24.20;1.00;;;;;;6325958;28;20613;-55
2022/05/10 10:25:05;;;;;;;5.03;4.57;;;24.30;1.00;;;;;;6297514;28;20239;-53
2022/05/10 10:28:22;;;;;;;6.23;4.23;;;24.30;1.00;;;;;;6305164;28;20240;-54
2022/05/10 10:31:30;;;;;;;4.40;4.10;;;24.30;1.00;;;;;;6315085;28;20318;-54
2022/05/10 10:34:38;;;;;;;5.20;3.90;;;24.50;1.00;;;;;;6302261;28;20233;-53
2022/05/10 10:37:49;;;;;;;8.63;4.17;;;24.60;1.00;;;;;;6303814;28;20248;-54
2022/05/10 10:40:59;;;;;;;8.03;4.03;;;24.90;1.00;;;;;;6305891;28;20270;-53
2022/05/10 10:44:08;;;;;;;5.10;4.30;;;25.10;1.00;;;;;;6299752;28;20324;-54
2022/05/10 10:47:27;;;;;;;4.43;4.03;;;25.20;1.00;;;;;;6283972;28;20243;-58
2022/05/10 10:50:32;;;;;;;5.73;4.37;;;25.20;1.00;;;;;;6298453;28;20244;-53
2022/05/10 10:53:37;;;;;;;7.10;4.27;;;25.20;1.00;;;;;;6338201;27;20319;-53
2022/05/10 10:56:51;;;;;;;5.03;4.33;;;25.20;1.00;;;;;;6322287;27;20345;-53
2022/05/10 11:00:08;;;;;;;3.93;3.63;;;25.20;1.00;;;;;;6303277;28;20521;-53
2022/05/10 11:03:27;;;;;;;5.23;3.90;;;25.10;1.00;;;;;;6303404;28;20443;-53
2022/05/10 11:06:35;;;;;;;5.43;3.77;;;25.00;1.00;;;;;;6301677;28;20595;-53
2022/05/10 11:09:46;;;;;;;4.93;4.40;;;25.10;1.00;;;;;;6305789;28;20323;-52
2022/05/10 11:12:56;;;;;;;4.80;4.40;;;25.10;1.00;;;;;;6301465;28;20286;-54
2022/05/10 11:16:12;;;;;;;6.13;4.47;;;25.30;1.00;;;;;;6303466;28;20332;-54
2022/05/10 11:19:41;;;;;;;4.83;4.53;;;25.50;1.00;;;;;;6306267;28;20284;-53
2022/05/10 11:22:53;;;;;;;4.67;4.00;;;25.60;1.00;;;;;;6324160;27;20314;-53
2022/05/10 11:26:08;;;;;;;4.57;4.27;;;25.70;1.00;;;;;;6325626;28;20236;-54
2022/05/10 11:29:31;;;;;;;4.43;4.07;;;25.70;1.00;;;;;;6323314;28;20857;-53
2022/05/10 11:33:06;;;;;;;4.40;4.17;;;25.80;1.00;;;;;;6323160;28;20281;-54
2022/05/10 11:36:27;;;;;;;4.73;4.50;;;25.70;1.00;;;;;;6327590;28;20322;-53
2022/05/10 11:40:06;;;;;;;4.53;4.30;;;25.80;1.00;;;;;;6325761;28;20361;-53
2022/05/10 11:43:36;;;;;;;4.97;4.53;;;26.00;1.00;;;;;;6291823;28;20232;-52
2022/05/10 11:47:17;;;;;;;4.03;3.83;;;26.10;1.00;;;;;;6319718;28;20228;-53
2022/05/10 11:54:52;;;;;;;4.73;4.23;;;26.10;1.00;;;;;;6207554;28;20245;-51
2022/05/10 11:57:59;;;;;;;4.07;3.83;;;26.20;1.00;;;;;;6302501;28;20233;-54
2022/05/10 12:01:03;;;;;;;4.93;4.53;;;26.40;1.00;;;;;;6307243;28;20366;-53
2022/05/10 12:04:06;;;;;;;4.77;4.40;;;26.40;1.00;;;;;;6305644;28;20232;-52
2022/05/10 12:07:30;;;;;;;7.00;4.37;;;26.40;1.00;;;;;;6303972;28;20627;-53
2022/05/10 12:10:37;;;;;;;4.37;3.90;;;26.50;1.00;;;;;;6295289;28;20241;-54
2022/05/10 12:24:04;;;;;;;5.23;5.00;;;26.30;1.00;;;;;;6325430;28;20592;-54
2022/05/10 12:27:33;;;;;;;5.03;4.53;;;26.50;1.00;;;;;;6323653;28;20293;-53
2022/05/10 12:30:37;;;;;;;3.70;3.47;;;26.70;1.00;;;;;;6309586;28;20236;-54
2022/05/10 12:33:58;;;;;;;4.17;3.97;;;26.90;1.00;;;;;;6304850;28;20303;-53
2022/05/10 12:37:35;;;;;;;4.10;3.83;;;27.10;1.00;;;;;;6299122;28;20732;-54
2022/05/10 12:40:57;;;;;;;3.90;3.70;;;27.20;1.00;;;;;;6299135;28;20313;-54
2022/05/10 12:44:46;;;;;;;6.90;4.77;;;27.10;1.00;;;;;;6326640;28;20273;-52
2022/05/10 12:48:06;;;;;;;4.23;4.00;;;27.20;1.00;;;;;;6305723;28;20460;-54
2022/05/10 12:51:24;;;;;;;4.90;4.20;;;27.20;1.00;;;;;;6319417;28;20278;-55
2022/05/10 12:54:35;;;;;;;6.00;4.13;;;27.00;1.00;;;;;;6302706;28;20316;-53
2022/05/10 12:57:54;;;;;;;4.30;4.10;;;26.80;1.00;;;;;;6313638;28;20603;-56
2022/05/10 13:01:01;;;;;;;3.97;3.80;;;26.70;1.00;;;;;;6323808;28;20261;-54
2022/05/10 13:04:13;;;;;;;4.60;4.47;;;26.50;1.00;;;;;;6326730;28;20236;-54
2022/05/10 13:07:34;;;;;;;5.23;4.53;;;26.40;1.00;;;;;;6324740;27;20613;-56
2022/05/10 13:10:38;;;;;;;4.53;4.30;;;26.70;1.00;;;;;;6300495;28;20358;-53
2022/05/10 13:13:44;;;;;;;5.10;4.60;;;26.90;1.00;;;;;;6303149;28;20653;-54
2022/05/10 13:16:50;;;;;;;4.63;4.30;;;27.00;1.00;;;;;;6296897;28;20241;-54
2022/05/10 13:19:55;;;;;;;4.83;4.43;;;26.80;1.00;;;;;;6299828;28;20239;-54
2022/05/10 13:23:01;;;;;;;6.47;4.70;;;26.70;1.00;;;;;;6299472;28;20224;-53
2022/05/10 13:26:06;;;;;;;4.47;4.27;;;26.50;1.00;;;;;;6296142;28;20228;-53
2022/05/10 13:29:09;;;;;;;5.40;4.90;;;26.70;1.00;;;;;;6301302;28;20233;-51
2022/05/10 13:32:26;;;;;;;7.37;4.83;;;26.70;1.00;;;;;;6306174;28;20237;-53
2022/05/10 13:35:32;;;;;;;4.90;4.50;;;26.60;1.00;;;;;;6313698;28;20235;-54
2022/05/10 13:38:38;;;;;;;5.20;4.80;;;26.60;1.00;;;;;;6304254;28;20260;-54
2022/05/10 13:41:42;;;;;;;4.97;4.67;;;26.50;1.00;;;;;;6280711;28;20225;-54
2022/05/10 13:44:45;;;;;;;4.80;4.50;;;26.50;1.00;;;;;;6295665;28;20263;-52
2022/05/10 13:47:50;;;;;;;4.73;4.43;;;26.70;1.00;;;;;;6297765;28;20776;-53
2022/05/10 13:51:02;;;;;;;4.00;3.80;;;26.80;1.00;;;;;;6306733;28;20229;-55
2022/05/10 13:54:08;;;;;;;4.63;4.33;;;26.80;1.00;;;;;;6302385;28;20331;-54
2022/05/10 13:57:25;;;;;;;4.87;4.57;;;26.70;1.00;;;;;;6295762;28;20288;-54
2022/05/10 14:00:33;;;;;;;5.03;4.63;;;26.60;1.00;;;;;;6303528;28;20309;-54
2022/05/10 14:03:38;;;;;;;4.90;4.40;;;26.80;1.00;;;;;;6306115;28;20254;-55
2022/05/10 14:06:56;;;;;;;4.03;3.83;;;26.80;1.00;;;;;;6299759;28;20282;-60
2022/05/10 14:10:00;;;;;;;3.83;3.73;;;27.00;1.00;;;;;;6309247;28;20229;-55
2022/05/10 14:13:07;;;;;;;3.93;3.73;;;27.00;1.00;;;;;;6312389;28;20232;-55
2022/05/10 14:16:11;;;;;;;4.07;3.77;;;27.10;1.00;;;;;;6298778;28;20358;-56
2022/05/10 14:19:25;;;;;;;4.70;4.10;;;27.20;1.00;;;;;;6306594;28;21038;-55
2022/05/10 14:22:29;;;;;;;4.47;4.10;;;27.20;1.00;;;;;;6304485;28;20243;-52
2022/05/10 14:25:35;;;;;;;4.13;3.93;;;27.00;1.00;;;;;;6302665;28;20587;-55
2022/05/10 14:28:52;;;;;;;5.13;4.30;;;26.80;1.00;;;;;;6303650;28;20323;-54
2022/05/10 14:31:58;;;;;;;4.50;4.30;;;26.80;1.00;;;;;;6329868;28;20601;-54
2022/05/10 14:35:02;;;;;;;4.93;4.60;;;26.70;1.00;;;;;;6329273;28;20695;-54
2022/05/10 14:38:16;;;;;;;4.70;4.40;;;26.50;1.00;;;;;;6331591;28;20292;-55
2022/05/10 14:41:29;;;;;;;4.80;4.50;;;26.40;1.00;;;;;;6323421;28;20243;-55
2022/05/10 14:44:42;;;;;;;5.50;5.00;;;26.30;1.00;;;;;;6325436;28;20385;-55
2022/05/10 14:47:45;;;;;;;5.87;5.37;;;26.40;1.00;;;;;;6330817;28;20588;-54
2022/05/10 14:50:52;;;;;;;4.53;4.23;;;26.10;1.00;;;;;;6329715;27;20521;-56
2022/05/10 14:53:56;;;;;;;4.77;4.57;;;26.30;1.00;;;;;;6330294;28;20734;-55
2022/05/10 14:57:00;;;;;;;4.87;4.43;;;26.30;1.00;;;;;;6321697;28;20295;-54
2022/05/10 15:00:28;;;;;;;4.43;4.27;;;26.40;1.00;;;;;;6331550;28;20429;-55
2022/05/10 15:03:31;;;;;;;4.80;4.47;;;26.40;1.00;;;;;;6299902;28;20685;-53
2022/05/10 15:06:35;;;;;;;5.00;4.67;;;26.50;1.00;;;;;;6305927;28;20330;-55
2022/05/10 15:09:39;;;;;;;5.07;4.67;;;26.60;1.00;;;;;;6304386;28;20748;-53
2022/05/10 15:16:04;;;;;;;4.40;4.30;;;26.40;1.00;;;;;;6325620;27;20240;-55
2022/05/10 15:19:07;;;;;;;4.67;4.23;;;26.40;1.00;;;;;;6328654;28;20327;-54
2022/05/10 15:22:13;;;;;;;5.10;4.70;;;26.20;1.00;;;;;;6328560;28;20244;-55
2022/05/10 15:25:18;;;;;;;4.10;3.90;;;26.20;1.00;;;;;;6329232;27;20274;-55
2022/05/10 15:28:21;;;;;;;6.10;4.33;;;26.00;1.00;;;;;;6318383;27;20689;-54
2022/05/10 15:31:25;;;;;;;4.33;4.07;;;26.00;1.00;;;;;;6302039;28;20232;-54
2022/05/10 15:34:47;;;;;;;5.20;4.70;;;26.10;1.00;;;;;;6329748;28;20311;-54
2022/05/10 15:37:50;;;;;;;4.40;4.03;;;26.30;1.00;;;;;;6327764;28;20340;-53
2022/05/10 15:40:55;;;;;;;4.40;4.20;;;26.30;1.00;;;;;;6318346;28;20616;-54
2022/05/10 15:43:58;;;;;;;4.57;4.13;;;26.20;1.00;;;;;;6321475;28;20240;-55
2022/05/10 15:47:01;;;;;;;5.50;4.50;;;26.10;1.00;;;;;;6327877;28;20251;-55
2022/05/10 15:50:06;;;;;;;6.43;4.53;;;26.10;1.00;;;;;;6328811;28;20311;-54
2022/05/10 15:53:09;;;;;;;4.57;4.30;;;26.10;1.00;;;;;;6328871;28;20315;-56
2022/05/10 15:56:14;;;;;;;4.90;4.60;;;26.10;1.00;;;;;;6326483;28;20243;-54
2022/05/10 15:59:17;;;;;;;5.27;4.33;;;26.20;1.00;;;;;;6296683;28;20225;-55
2022/05/10 16:02:21;;;;;;;5.17;4.03;;;26.20;1.00;;;;;;6301958;28;20232;-54
2022/05/10 16:05:24;;;;;;;3.70;3.50;;;26.20;1.00;;;;;;6300576;28;20237;-54
2022/05/10 16:08:36;;;;;;;4.37;3.97;;;26.10;1.00;;;;;;6303345;28;20232;-55
2022/05/10 16:11:40;;;;;;;4.03;3.93;;;26.10;1.00;;;;;;6300749;28;20707;-56
2022/05/10 16:14:43;;;;;;;4.83;4.53;;;25.80;1.00;;;;;;6302865;28;20235;-55
2022/05/10 16:17:47;;;;;;;6.00;4.53;;;25.70;1.00;;;;;;6298374;28;20325;-53
2022/05/10 16:20:57;;;;;;;7.57;4.23;;;25.60;1.00;;;;;;6303234;28;20232;-54
2022/05/10 16:24:00;;;;;;;5.27;4.00;;;25.60;1.00;;;;;;6300471;28;20327;-55
2022/05/10 16:30:26;;;;;;;4.07;3.87;;;25.50;1.00;;;;;;6328189;28;20554;-55
2022/05/10 16:33:33;;;;;;;4.70;4.40;;;25.50;1.00;;;;;;6318113;28;20635;-52
2022/05/10 16:36:36;;;;;;;5.70;4.70;;;25.40;1.00;;;;;;6324107;28;20236;-55
2022/05/10 16:39:40;;;;;;;8.97;4.70;;;25.20;1.00;;;;;;6327741;28;20246;-54
2022/05/10 16:42:44;;;;;;;4.00;3.83;;;25.10;1.00;;;;;;6322605;27;20271;-54
2022/05/10 16:45:48;;;;;;;4.93;4.53;;;25.10;1.00;;;;;;6328406;28;20525;-56
2022/05/10 16:48:51;;;;;;;4.40;4.20;;;25.00;1.00;;;;;;6316033;28;20235;-55
2022/05/10 16:51:53;;;;;;;4.57;4.17;;;24.90;1.00;;;;;;6292840;28;20698;-55
2022/05/10 16:54:58;;;;;;;5.23;4.97;;;24.90;1.00;;;;;;6296275;28;20239;-55
2022/05/10 16:58:02;;;;;;;5.77;4.77;;;25.00;1.00;;;;;;6318326;28;20239;-55